sensor_id;sensor_type;location;lat;lon;timestamp;temperature;humidity
15717;DHT22;7960;50.908;4.204;2023-06-14T00:02:25;21.40;67.60
15717;DHT22;7960;50.908;4.204;2023-06-14T00:04:52;21.30;67.80
15717;DHT22;7960;50.908;4.204;2023-06-14T00:07:22;21.30;68.10
15717;DHT22;7960;50.908;4.204;2023-06-14T00:09:59;21.40;68.30
15717;DHT22;7960;50.908;4.204;2023-06-14T00:12:27;21.50;67.90
15717;DHT22;7960;50.908;4.204;2023-06-14T00:14:54;21.80;67.60
15717;DHT22;7960;50.908;4.204;2023-06-14T00:17:21;21.80;67.20
15717;DHT22;7960;50.908;4.204;2023-06-14T00:19:48;21.70;67.30
15717;DHT22;7960;50.908;4.204;2023-06-14T00:22:15;21.60;67.50
15717;DHT22;7960;50.908;4.204;2023-06-14T00:24:42;21.60;67.40
15717;DHT22;7960;50.908;4.204;2023-06-14T00:27:09;21.70;68.10
15717;DHT22;7960;50.908;4.204;2023-06-14T00:29:38;21.70;67.30
15717;DHT22;7960;50.908;4.204;2023-06-14T00:32:05;21.60;67.10
15717;DHT22;7960;50.908;4.204;2023-06-14T00:34:33;21.50;67.30
15717;DHT22;7960;50.908;4.204;2023-06-14T00:37:00;21.40;67.40
15717;DHT22;7960;50.908;4.204;2023-06-14T00:39:27;21.40;68.20
15717;DHT22;7960;50.908;4.204;2023-06-14T00:41:54;21.20;68.30
15717;DHT22;7960;50.908;4.204;2023-06-14T00:44:21;21.20;69.70
15717;DHT22;7960;50.908;4.204;2023-06-14T00:46:49;21.20;69.00
15717;DHT22;7960;50.908;4.204;2023-06-14T00:49:17;21.30;69.20
15717;DHT22;7960;50.908;4.204;2023-06-14T00:51:45;21.10;69.00
15717;DHT22;7960;50.908;4.204;2023-06-14T00:54:12;21.00;69.60
15717;DHT22;7960;50.908;4.204;2023-06-14T00:56:39;21.00;70.00
15717;DHT22;7960;50.908;4.204;2023-06-14T00:59:07;21.00;70.60
15717;DHT22;7960;50.908;4.204;2023-06-14T01:01:33;20.80;70.80
15717;DHT22;7960;50.908;4.204;2023-06-14T01:04:02;20.90;71.40
15717;DHT22;7960;50.908;4.204;2023-06-14T01:06:33;20.70;71.60
15717;DHT22;7960;50.908;4.204;2023-06-14T01:09:09;20.70;71.70
15717;DHT22;7960;50.908;4.204;2023-06-14T01:11:48;20.80;72.20
15717;DHT22;7960;50.908;4.204;2023-06-14T01:14:16;20.80;72.00
15717;DHT22;7960;50.908;4.204;2023-06-14T01:16:44;20.70;72.00
15717;DHT22;7960;50.908;4.204;2023-06-14T01:19:14;20.50;72.40
15717;DHT22;7960;50.908;4.204;2023-06-14T01:21:42;20.40;73.00
15717;DHT22;7960;50.908;4.204;2023-06-14T01:24:10;20.20;74.00
15717;DHT22;7960;50.908;4.204;2023-06-14T01:26:38;20.00;74.70
15717;DHT22;7960;50.908;4.204;2023-06-14T01:29:11;20.10;75.00
15717;DHT22;7960;50.908;4.204;2023-06-14T01:31:42;20.10;75.10
15717;DHT22;7960;50.908;4.204;2023-06-14T01:34:09;20.00;75.20
15717;DHT22;7960;50.908;4.204;2023-06-14T01:36:36;19.80;76.10
15717;DHT22;7960;50.908;4.204;2023-06-14T01:39:05;19.70;77.00
15717;DHT22;7960;50.908;4.204;2023-06-14T01:41:34;19.90;76.60
15717;DHT22;7960;50.908;4.204;2023-06-14T01:44:02;20.00;77.00
15717;DHT22;7960;50.908;4.204;2023-06-14T01:46:30;19.90;76.10
15717;DHT22;7960;50.908;4.204;2023-06-14T01:48:56;19.90;76.30
15717;DHT22;7960;50.908;4.204;2023-06-14T01:51:23;19.90;76.20
15717;DHT22;7960;50.908;4.204;2023-06-14T01:53:50;20.00;76.20
15717;DHT22;7960;50.908;4.204;2023-06-14T01:56:18;20.10;76.10
15717;DHT22;7960;50.908;4.204;2023-06-14T01:58:46;20.00;75.90
15717;DHT22;7960;50.908;4.204;2023-06-14T02:01:14;19.80;76.20
15717;DHT22;7960;50.908;4.204;2023-06-14T02:03:41;19.80;77.00
15717;DHT22;7960;50.908;4.204;2023-06-14T02:06:10;20.00;76.70
15717;DHT22;7960;50.908;4.204;2023-06-14T02:08:37;19.90;76.60
15717;DHT22;7960;50.908;4.204;2023-06-14T02:11:04;19.90;76.80
15717;DHT22;7960;50.908;4.204;2023-06-14T02:13:31;19.70;77.00
15717;DHT22;7960;50.908;4.204;2023-06-14T02:16:00;19.70;77.30
15717;DHT22;7960;50.908;4.204;2023-06-14T02:18:26;19.70;77.50
15717;DHT22;7960;50.908;4.204;2023-06-14T02:20:54;19.70;77.90
15717;DHT22;7960;50.908;4.204;2023-06-14T02:23:21;19.70;78.10
15717;DHT22;7960;50.908;4.204;2023-06-14T02:25:47;19.80;78.10
15717;DHT22;7960;50.908;4.204;2023-06-14T02:28:14;19.70;77.80
15717;DHT22;7960;50.908;4.204;2023-06-14T02:30:41;19.60;78.00
15717;DHT22;7960;50.908;4.204;2023-06-14T02:33:09;19.60;78.20
15717;DHT22;7960;50.908;4.204;2023-06-14T02:35:38;19.50;78.70
15717;DHT22;7960;50.908;4.204;2023-06-14T02:38:05;19.50;79.00
15717;DHT22;7960;50.908;4.204;2023-06-14T02:40:32;19.40;79.20
15717;DHT22;7960;50.908;4.204;2023-06-14T02:42:58;19.40;79.90
15717;DHT22;7960;50.908;4.204;2023-06-14T02:45:25;19.40;79.50
15717;DHT22;7960;50.908;4.204;2023-06-14T02:47:52;19.40;79.60
15717;DHT22;7960;50.908;4.204;2023-06-14T02:50:22;19.20;79.80
15717;DHT22;7960;50.908;4.204;2023-06-14T02:52:49;19.20;80.40
15717;DHT22;7960;50.908;4.204;2023-06-14T02:55:16;19.30;80.80
15717;DHT22;7960;50.908;4.204;2023-06-14T02:57:43;19.10;80.80
15717;DHT22;7960;50.908;4.204;2023-06-14T03:00:10;19.00;81.60
15717;DHT22;7960;50.908;4.204;2023-06-14T03:02:38;19.10;81.30
15717;DHT22;7960;50.908;4.204;2023-06-14T03:05:06;19.00;81.30
15717;DHT22;7960;50.908;4.204;2023-06-14T03:07:35;18.90;81.60
15717;DHT22;7960;50.908;4.204;2023-06-14T03:10:07;19.00;81.80
15717;DHT22;7960;50.908;4.204;2023-06-14T03:12:34;19.00;81.60
15717;DHT22;7960;50.908;4.204;2023-06-14T03:15:02;18.90;81.80
15717;DHT22;7960;50.908;4.204;2023-06-14T03:17:30;18.90;82.20
15717;DHT22;7960;50.908;4.204;2023-06-14T03:19:59;19.00;82.20
15717;DHT22;7960;50.908;4.204;2023-06-14T03:22:26;19.10;82.10
15717;DHT22;7960;50.908;4.204;2023-06-14T03:24:55;19.10;81.80
15717;DHT22;7960;50.908;4.204;2023-06-14T03:27:22;18.80;82.00
15717;DHT22;7960;50.908;4.204;2023-06-14T03:29:49;18.80;82.80
15717;DHT22;7960;50.908;4.204;2023-06-14T03:32:15;18.90;82.60
15717;DHT22;7960;50.908;4.204;2023-06-14T03:34:42;18.90;82.50
15717;DHT22;7960;50.908;4.204;2023-06-14T03:37:10;18.90;82.40
15717;DHT22;7960;50.908;4.204;2023-06-14T03:39:37;18.80;82.50
15717;DHT22;7960;50.908;4.204;2023-06-14T03:42:13;19.00;82.30
15717;DHT22;7960;50.908;4.204;2023-06-14T03:44:39;18.90;82.30
15717;DHT22;7960;50.908;4.204;2023-06-14T03:47:06;18.70;82.60
15717;DHT22;7960;50.908;4.204;2023-06-14T03:49:34;18.70;82.90
15717;DHT22;7960;50.908;4.204;2023-06-14T03:52:01;18.80;82.80
15717;DHT22;7960;50.908;4.204;2023-06-14T03:54:28;18.90;82.90
15717;DHT22;7960;50.908;4.204;2023-06-14T03:56:55;19.00;82.20
15717;DHT22;7960;50.908;4.204;2023-06-14T03:59:24;18.90;82.10
15717;DHT22;7960;50.908;4.204;2023-06-14T04:01:51;18.70;82.40
15717;DHT22;7960;50.908;4.204;2023-06-14T04:04:18;18.70;82.70
15717;DHT22;7960;50.908;4.204;2023-06-14T04:06:46;18.90;82.70
15717;DHT22;7960;50.908;4.204;2023-06-14T04:09:14;18.90;82.60
15717;DHT22;7960;50.908;4.204;2023-06-14T04:11:40;18.70;82.60
15717;DHT22;7960;50.908;4.204;2023-06-14T04:14:07;18.90;83.10
15717;DHT22;7960;50.908;4.204;2023-06-14T04:16:35;18.80;82.80
15717;DHT22;7960;50.908;4.204;2023-06-14T04:19:02;18.70;83.00
15717;DHT22;7960;50.908;4.204;2023-06-14T04:21:29;18.60;83.50
15717;DHT22;7960;50.908;4.204;2023-06-14T04:23:56;18.70;83.80
15717;DHT22;7960;50.908;4.204;2023-06-14T04:26:23;18.70;84.80
15717;DHT22;7960;50.908;4.204;2023-06-14T04:28:55;18.80;83.50
15717;DHT22;7960;50.908;4.204;2023-06-14T04:31:22;18.80;83.40
15717;DHT22;7960;50.908;4.204;2023-06-14T04:33:52;18.90;83.30
15717;DHT22;7960;50.908;4.204;2023-06-14T04:36:19;19.00;83.50
15717;DHT22;7960;50.908;4.204;2023-06-14T04:38:46;18.90;83.70
15717;DHT22;7960;50.908;4.204;2023-06-14T04:41:14;19.00;83.60
15717;DHT22;7960;50.908;4.204;2023-06-14T04:43:41;19.10;83.40
15717;DHT22;7960;50.908;4.204;2023-06-14T04:46:08;19.10;82.90
15717;DHT22;7960;50.908;4.204;2023-06-14T04:48:36;19.20;82.80
15717;DHT22;7960;50.908;4.204;2023-06-14T04:51:07;19.10;82.80
15717;DHT22;7960;50.908;4.204;2023-06-14T04:53:35;19.00;82.90
15717;DHT22;7960;50.908;4.204;2023-06-14T04:56:02;19.10;83.40
15717;DHT22;7960;50.908;4.204;2023-06-14T04:58:29;19.20;83.20
15717;DHT22;7960;50.908;4.204;2023-06-14T05:00:56;19.20;82.90
15717;DHT22;7960;50.908;4.204;2023-06-14T05:03:24;19.30;83.00
15717;DHT22;7960;50.908;4.204;2023-06-14T05:05:52;19.30;82.70
15717;DHT22;7960;50.908;4.204;2023-06-14T05:08:21;19.30;82.70
15717;DHT22;7960;50.908;4.204;2023-06-14T05:10:49;19.30;82.80
15717;DHT22;7960;50.908;4.204;2023-06-14T05:13:16;19.40;83.10
15717;DHT22;7960;50.908;4.204;2023-06-14T05:15:43;19.50;83.20
15717;DHT22;7960;50.908;4.204;2023-06-14T05:18:10;19.50;83.50
15717;DHT22;7960;50.908;4.204;2023-06-14T05:20:38;19.50;83.30
15717;DHT22;7960;50.908;4.204;2023-06-14T05:23:07;19.50;83.50
15717;DHT22;7960;50.908;4.204;2023-06-14T05:25:35;19.50;83.70
15717;DHT22;7960;50.908;4.204;2023-06-14T05:28:02;19.50;83.70
15717;DHT22;7960;50.908;4.204;2023-06-14T05:30:29;19.60;83.80
15717;DHT22;7960;50.908;4.204;2023-06-14T05:32:56;19.70;83.40
15717;DHT22;7960;50.908;4.204;2023-06-14T05:35:23;19.80;83.10
15717;DHT22;7960;50.908;4.204;2023-06-14T05:37:52;19.90;83.10
15717;DHT22;7960;50.908;4.204;2023-06-14T05:40:19;19.90;83.10
15717;DHT22;7960;50.908;4.204;2023-06-14T05:42:47;19.80;83.20
15717;DHT22;7960;50.908;4.204;2023-06-14T05:45:14;19.90;83.40
15717;DHT22;7960;50.908;4.204;2023-06-14T05:47:41;20.00;83.20
15717;DHT22;7960;50.908;4.204;2023-06-14T05:50:09;20.10;83.00
15717;DHT22;7960;50.908;4.204;2023-06-14T05:52:36;20.10;83.30
15717;DHT22;7960;50.908;4.204;2023-06-14T05:55:04;20.20;83.40
15717;DHT22;7960;50.908;4.204;2023-06-14T05:57:31;20.40;83.50
15717;DHT22;7960;50.908;4.204;2023-06-14T05:59:59;20.40;83.10
15717;DHT22;7960;50.908;4.204;2023-06-14T06:02:26;20.60;82.10
15717;DHT22;7960;50.908;4.204;2023-06-14T06:04:53;20.60;82.10
15717;DHT22;7960;50.908;4.204;2023-06-14T06:07:20;20.70;81.90
15717;DHT22;7960;50.908;4.204;2023-06-14T06:09:47;20.40;81.30
15717;DHT22;7960;50.908;4.204;2023-06-14T06:12:14;20.30;82.50
15717;DHT22;7960;50.908;4.204;2023-06-14T06:14:41;20.40;83.60
15717;DHT22;7960;50.908;4.204;2023-06-14T06:17:09;20.50;83.10
15717;DHT22;7960;50.908;4.204;2023-06-14T06:19:36;20.70;82.80
15717;DHT22;7960;50.908;4.204;2023-06-14T06:22:04;20.90;82.40
15717;DHT22;7960;50.908;4.204;2023-06-14T06:24:31;21.00;81.80
15717;DHT22;7960;50.908;4.204;2023-06-14T06:26:58;20.90;81.60
15717;DHT22;7960;50.908;4.204;2023-06-14T06:29:25;21.10;81.30
15717;DHT22;7960;50.908;4.204;2023-06-14T06:31:52;21.00;81.30
15717;DHT22;7960;50.908;4.204;2023-06-14T06:34:20;21.10;81.10
15717;DHT22;7960;50.908;4.204;2023-06-14T06:36:47;21.10;81.30
15717;DHT22;7960;50.908;4.204;2023-06-14T06:39:17;21.10;81.20
15717;DHT22;7960;50.908;4.204;2023-06-14T06:41:44;21.30;81.30
15717;DHT22;7960;50.908;4.204;2023-06-14T06:44:11;21.40;80.90
15717;DHT22;7960;50.908;4.204;2023-06-14T06:46:39;21.50;80.60
15717;DHT22;7960;50.908;4.204;2023-06-14T06:49:07;21.60;81.00
15717;DHT22;7960;50.908;4.204;2023-06-14T06:51:41;21.80;80.10
15717;DHT22;7960;50.908;4.204;2023-06-14T06:54:08;21.80;79.40
15717;DHT22;7960;50.908;4.204;2023-06-14T06:56:35;21.90;79.20
15717;DHT22;7960;50.908;4.204;2023-06-14T06:59:02;22.00;79.50
15717;DHT22;7960;50.908;4.204;2023-06-14T07:01:29;22.00;78.70
15717;DHT22;7960;50.908;4.204;2023-06-14T07:03:56;22.10;78.90
15717;DHT22;7960;50.908;4.204;2023-06-14T07:06:22;22.10;78.70
15717;DHT22;7960;50.908;4.204;2023-06-14T07:08:54;22.10;78.70
15717;DHT22;7960;50.908;4.204;2023-06-14T07:11:21;22.20;78.20
15717;DHT22;7960;50.908;4.204;2023-06-14T07:13:48;22.30;77.90
15717;DHT22;7960;50.908;4.204;2023-06-14T07:16:14;22.40;77.10
15717;DHT22;7960;50.908;4.204;2023-06-14T07:18:41;22.50;77.50
15717;DHT22;7960;50.908;4.204;2023-06-14T07:21:09;22.70;77.60
15717;DHT22;7960;50.908;4.204;2023-06-14T07:23:36;22.80;77.60
15717;DHT22;7960;50.908;4.204;2023-06-14T07:26:04;22.90;76.20
15717;DHT22;7960;50.908;4.204;2023-06-14T07:28:31;23.00;76.50
15717;DHT22;7960;50.908;4.204;2023-06-14T07:30:57;23.10;75.60
15717;DHT22;7960;50.908;4.204;2023-06-14T07:33:24;23.10;75.10
15717;DHT22;7960;50.908;4.204;2023-06-14T07:35:51;23.10;75.30
15717;DHT22;7960;50.908;4.204;2023-06-14T07:38:18;23.20;75.60
15717;DHT22;7960;50.908;4.204;2023-06-14T07:40:45;23.30;74.80
15717;DHT22;7960;50.908;4.204;2023-06-14T07:43:13;23.50;74.60
15717;DHT22;7960;50.908;4.204;2023-06-14T07:45:40;23.60;74.60
15717;DHT22;7960;50.908;4.204;2023-06-14T07:48:07;23.70;75.20
15717;DHT22;7960;50.908;4.204;2023-06-14T07:50:34;23.70;75.70
15717;DHT22;7960;50.908;4.204;2023-06-14T07:53:01;23.60;76.10
15717;DHT22;7960;50.908;4.204;2023-06-14T07:55:28;23.70;75.50
15717;DHT22;7960;50.908;4.204;2023-06-14T07:57:56;23.60;75.80
15717;DHT22;7960;50.908;4.204;2023-06-14T08:00:24;23.60;74.70
15717;DHT22;7960;50.908;4.204;2023-06-14T08:02:51;23.80;74.10
15717;DHT22;7960;50.908;4.204;2023-06-14T08:05:24;23.90;73.70
15717;DHT22;7960;50.908;4.204;2023-06-14T08:07:51;24.00;73.20
15717;DHT22;7960;50.908;4.204;2023-06-14T08:10:20;24.10;74.20
15717;DHT22;7960;50.908;4.204;2023-06-14T08:12:47;24.20;73.00
15717;DHT22;7960;50.908;4.204;2023-06-14T08:15:15;24.30;73.20
15717;DHT22;7960;50.908;4.204;2023-06-14T08:17:44;24.50;73.20
15717;DHT22;7960;50.908;4.204;2023-06-14T08:20:12;24.60;72.70
15717;DHT22;7960;50.908;4.204;2023-06-14T08:22:39;24.60;71.60
15717;DHT22;7960;50.908;4.204;2023-06-14T08:25:08;24.70;70.40
15717;DHT22;7960;50.908;4.204;2023-06-14T08:27:36;24.90;70.60
15717;DHT22;7960;50.908;4.204;2023-06-14T08:30:04;25.00;70.40
15717;DHT22;7960;50.908;4.204;2023-06-14T08:32:32;24.90;69.60
15717;DHT22;7960;50.908;4.204;2023-06-14T08:35:00;24.90;70.00
15717;DHT22;7960;50.908;4.204;2023-06-14T08:37:28;24.90;69.30
15717;DHT22;7960;50.908;4.204;2023-06-14T08:39:55;25.00;69.80
15717;DHT22;7960;50.908;4.204;2023-06-14T08:42:24;25.20;72.00
15717;DHT22;7960;50.908;4.204;2023-06-14T08:44:51;25.20;72.20
15717;DHT22;7960;50.908;4.204;2023-06-14T08:47:17;25.20;71.90
15717;DHT22;7960;50.908;4.204;2023-06-14T08:49:47;25.20;72.00
15717;DHT22;7960;50.908;4.204;2023-06-14T08:52:19;25.30;72.00
15717;DHT22;7960;50.908;4.204;2023-06-14T08:54:48;25.50;69.40
15717;DHT22;7960;50.908;4.204;2023-06-14T08:57:16;25.40;69.10
15717;DHT22;7960;50.908;4.204;2023-06-14T08:59:47;25.40;67.70
15717;DHT22;7960;50.908;4.204;2023-06-14T09:02:18;25.50;66.60
15717;DHT22;7960;50.908;4.204;2023-06-14T09:04:47;25.60;66.50
15717;DHT22;7960;50.908;4.204;2023-06-14T09:07:16;25.80;66.90
15717;DHT22;7960;50.908;4.204;2023-06-14T09:09:44;25.90;68.20
15717;DHT22;7960;50.908;4.204;2023-06-14T09:12:11;26.10;68.40
15717;DHT22;7960;50.908;4.204;2023-06-14T09:14:38;26.10;65.70
15717;DHT22;7960;50.908;4.204;2023-06-14T09:17:07;26.00;64.60
15717;DHT22;7960;50.908;4.204;2023-06-14T09:19:34;26.10;65.20
15717;DHT22;7960;50.908;4.204;2023-06-14T09:22:03;26.10;66.00
15717;DHT22;7960;50.908;4.204;2023-06-14T09:24:32;26.20;66.90
15717;DHT22;7960;50.908;4.204;2023-06-14T09:26:58;26.30;67.70
15717;DHT22;7960;50.908;4.204;2023-06-14T09:29:25;26.50;67.10
15717;DHT22;7960;50.908;4.204;2023-06-14T09:31:53;26.70;67.60
15717;DHT22;7960;50.908;4.204;2023-06-14T09:34:21;26.80;66.20
15717;DHT22;7960;50.908;4.204;2023-06-14T09:36:49;26.60;64.00
15717;DHT22;7960;50.908;4.204;2023-06-14T09:39:17;26.60;64.60
15717;DHT22;7960;50.908;4.204;2023-06-14T09:41:46;26.70;64.40
15717;DHT22;7960;50.908;4.204;2023-06-14T09:44:12;26.60;63.70
15717;DHT22;7960;50.908;4.204;2023-06-14T09:46:39;26.60;65.30
15717;DHT22;7960;50.908;4.204;2023-06-14T09:49:08;26.70;65.00
15717;DHT22;7960;50.908;4.204;2023-06-14T09:51:40;27.00;62.70
15717;DHT22;7960;50.908;4.204;2023-06-14T09:54:14;27.10;61.10
15717;DHT22;7960;50.908;4.204;2023-06-14T09:56:47;26.90;61.90
15717;DHT22;7960;50.908;4.204;2023-06-14T09:59:18;27.10;63.00
15717;DHT22;7960;50.908;4.204;2023-06-14T10:01:46;27.30;63.80
15717;DHT22;7960;50.908;4.204;2023-06-14T10:04:15;27.60;61.30
15717;DHT22;7960;50.908;4.204;2023-06-14T10:06:46;27.90;57.50
15717;DHT22;7960;50.908;4.204;2023-06-14T10:09:13;28.00;57.90
15717;DHT22;7960;50.908;4.204;2023-06-14T10:11:40;28.20;58.50
15717;DHT22;7960;50.908;4.204;2023-06-14T10:14:12;28.30;57.90
15717;DHT22;7960;50.908;4.204;2023-06-14T10:16:46;28.30;56.90
15717;DHT22;7960;50.908;4.204;2023-06-14T10:19:19;28.10;54.80
15717;DHT22;7960;50.908;4.204;2023-06-14T10:21:55;28.00;56.30
15717;DHT22;7960;50.908;4.204;2023-06-14T10:24:29;28.00;53.90
15717;DHT22;7960;50.908;4.204;2023-06-14T10:27:06;27.90;53.90
15717;DHT22;7960;50.908;4.204;2023-06-14T10:30:06;27.90;54.80
15717;DHT22;7960;50.908;4.204;2023-06-14T10:32:34;28.00;54.40
15717;DHT22;7960;50.908;4.204;2023-06-14T10:35:05;28.10;54.60
15717;DHT22;7960;50.908;4.204;2023-06-14T10:37:33;28.00;54.80
15717;DHT22;7960;50.908;4.204;2023-06-14T10:40:01;28.00;54.80
15717;DHT22;7960;50.908;4.204;2023-06-14T10:42:29;28.10;55.40
15717;DHT22;7960;50.908;4.204;2023-06-14T10:44:58;28.10;55.20
15717;DHT22;7960;50.908;4.204;2023-06-14T10:47:31;28.10;55.20
15717;DHT22;7960;50.908;4.204;2023-06-14T10:50:03;28.20;54.80
15717;DHT22;7960;50.908;4.204;2023-06-14T10:52:34;28.30;54.20
15717;DHT22;7960;50.908;4.204;2023-06-14T10:55:09;28.10;52.80
15717;DHT22;7960;50.908;4.204;2023-06-14T10:57:38;28.20;52.00
15717;DHT22;7960;50.908;4.204;2023-06-14T11:00:07;28.30;51.90
15717;DHT22;7960;50.908;4.204;2023-06-14T11:05:52;28.80;51.50
15717;DHT22;7960;50.908;4.204;2023-06-14T11:08:46;29.10;51.30
15717;DHT22;7960;50.908;4.204;2023-06-14T11:11:18;29.10;50.90
15717;DHT22;7960;50.908;4.204;2023-06-14T11:13:48;29.00;49.20
15717;DHT22;7960;50.908;4.204;2023-06-14T11:16:16;28.90;49.10
15717;DHT22;7960;50.908;4.204;2023-06-14T11:18:44;28.60;48.90
15717;DHT22;7960;50.908;4.204;2023-06-14T11:21:15;28.50;48.20
15717;DHT22;7960;50.908;4.204;2023-06-14T11:23:49;28.70;49.70
15717;DHT22;7960;50.908;4.204;2023-06-14T11:26:24;28.70;49.20
15717;DHT22;7960;50.908;4.204;2023-06-14T11:28:55;28.90;48.30
15717;DHT22;7960;50.908;4.204;2023-06-14T11:31:23;28.80;47.30
15717;DHT22;7960;50.908;4.204;2023-06-14T11:33:50;28.70;47.70
15717;DHT22;7960;50.908;4.204;2023-06-14T11:36:18;28.80;48.50
15717;DHT22;7960;50.908;4.204;2023-06-14T11:38:45;29.00;47.70
15717;DHT22;7960;50.908;4.204;2023-06-14T11:41:12;29.00;47.20
15717;DHT22;7960;50.908;4.204;2023-06-14T11:43:41;28.70;47.10
15717;DHT22;7960;50.908;4.204;2023-06-14T11:46:12;29.00;47.80
15717;DHT22;7960;50.908;4.204;2023-06-14T11:48:41;29.10;47.10
15717;DHT22;7960;50.908;4.204;2023-06-14T11:51:08;29.40;47.00
15717;DHT22;7960;50.908;4.204;2023-06-14T11:53:38;29.60;45.30
15717;DHT22;7960;50.908;4.204;2023-06-14T11:56:05;29.70;46.00
15717;DHT22;7960;50.908;4.204;2023-06-14T11:58:32;29.50;45.30
15717;DHT22;7960;50.908;4.204;2023-06-14T12:00:59;29.60;46.40
15717;DHT22;7960;50.908;4.204;2023-06-14T12:03:28;29.80;45.30
15717;DHT22;7960;50.908;4.204;2023-06-14T12:06:12;29.80;45.10
15717;DHT22;7960;50.908;4.204;2023-06-14T12:08:43;29.90;46.20
15717;DHT22;7960;50.908;4.204;2023-06-14T12:11:12;30.00;46.50
15717;DHT22;7960;50.908;4.204;2023-06-14T12:13:39;30.10;46.00
15717;DHT22;7960;50.908;4.204;2023-06-14T12:16:07;30.10;45.30
15717;DHT22;7960;50.908;4.204;2023-06-14T12:18:35;30.10;45.90
15717;DHT22;7960;50.908;4.204;2023-06-14T12:21:04;30.40;46.90
15717;DHT22;7960;50.908;4.204;2023-06-14T12:23:46;30.40;44.80
15717;DHT22;7960;50.908;4.204;2023-06-14T12:26:14;29.60;44.30
15717;DHT22;7960;50.908;4.204;2023-06-14T12:28:41;29.80;45.40
15717;DHT22;7960;50.908;4.204;2023-06-14T12:31:09;30.20;45.00
15717;DHT22;7960;50.908;4.204;2023-06-14T12:33:35;30.30;45.20
15717;DHT22;7960;50.908;4.204;2023-06-14T12:36:03;30.50;46.00
15717;DHT22;7960;50.908;4.204;2023-06-14T12:38:31;30.60;45.00
15717;DHT22;7960;50.908;4.204;2023-06-14T12:40:59;30.80;44.20
15717;DHT22;7960;50.908;4.204;2023-06-14T12:43:27;30.40;43.10
15717;DHT22;7960;50.908;4.204;2023-06-14T12:45:54;30.20;43.40
15717;DHT22;7960;50.908;4.204;2023-06-14T12:48:21;30.10;43.40
15717;DHT22;7960;50.908;4.204;2023-06-14T12:50:49;30.40;43.70
15717;DHT22;7960;50.908;4.204;2023-06-14T12:53:16;30.40;43.90
15717;DHT22;7960;50.908;4.204;2023-06-14T12:55:43;30.10;43.70
15717;DHT22;7960;50.908;4.204;2023-06-14T12:58:12;29.50;43.40
15717;DHT22;7960;50.908;4.204;2023-06-14T13:00:39;30.20;44.90
15717;DHT22;7960;50.908;4.204;2023-06-14T13:03:06;30.50;44.50
15717;DHT22;7960;50.908;4.204;2023-06-14T13:05:33;30.80;44.60
15717;DHT22;7960;50.908;4.204;2023-06-14T13:08:00;30.80;43.20
15717;DHT22;7960;50.908;4.204;2023-06-14T13:10:27;31.00;44.10
15717;DHT22;7960;50.908;4.204;2023-06-14T13:12:54;31.00;43.70
15717;DHT22;7960;50.908;4.204;2023-06-14T13:15:25;30.90;42.30
15717;DHT22;7960;50.908;4.204;2023-06-14T13:17:52;31.00;43.00
15717;DHT22;7960;50.908;4.204;2023-06-14T13:20:18;31.10;42.70
15717;DHT22;7960;50.908;4.204;2023-06-14T13:22:45;31.20;42.40
15717;DHT22;7960;50.908;4.204;2023-06-14T13:25:12;31.20;41.80
15717;DHT22;7960;50.908;4.204;2023-06-14T13:27:39;31.60;42.10
15717;DHT22;7960;50.908;4.204;2023-06-14T13:30:07;31.70;41.80
15717;DHT22;7960;50.908;4.204;2023-06-14T13:32:36;31.30;41.00
15717;DHT22;7960;50.908;4.204;2023-06-14T13:35:03;31.10;42.10
15717;DHT22;7960;50.908;4.204;2023-06-14T13:37:30;31.50;41.70
15717;DHT22;7960;50.908;4.204;2023-06-14T13:39:57;31.80;41.60
15717;DHT22;7960;50.908;4.204;2023-06-14T13:42:24;32.00;40.90
15717;DHT22;7960;50.908;4.204;2023-06-14T13:44:51;31.60;41.80
15717;DHT22;7960;50.908;4.204;2023-06-14T13:47:18;31.80;41.40
15717;DHT22;7960;50.908;4.204;2023-06-14T13:49:46;31.70;40.80
15717;DHT22;7960;50.908;4.204;2023-06-14T13:52:13;31.80;40.90
15717;DHT22;7960;50.908;4.204;2023-06-14T13:54:41;32.20;42.20
15717;DHT22;7960;50.908;4.204;2023-06-14T13:57:09;31.70;41.10
15717;DHT22;7960;50.908;4.204;2023-06-14T13:59:38;31.90;41.50
15717;DHT22;7960;50.908;4.204;2023-06-14T14:02:05;32.10;41.60
15717;DHT22;7960;50.908;4.204;2023-06-14T14:04:33;32.40;41.60
15717;DHT22;7960;50.908;4.204;2023-06-14T14:07:03;32.30;40.80
15717;DHT22;7960;50.908;4.204;2023-06-14T14:09:30;32.40;41.10
15717;DHT22;7960;50.908;4.204;2023-06-14T14:11:58;32.60;40.80
15717;DHT22;7960;50.908;4.204;2023-06-14T14:14:27;32.70;40.20
15717;DHT22;7960;50.908;4.204;2023-06-14T14:16:54;32.60;39.20
15717;DHT22;7960;50.908;4.204;2023-06-14T14:19:22;32.50;39.50
15717;DHT22;7960;50.908;4.204;2023-06-14T14:21:49;32.50;38.60
15717;DHT22;7960;50.908;4.204;2023-06-14T14:24:17;32.60;38.50
15717;DHT22;7960;50.908;4.204;2023-06-14T14:26:44;32.80;38.90
15717;DHT22;7960;50.908;4.204;2023-06-14T14:29:13;32.30;38.40
15717;DHT22;7960;50.908;4.204;2023-06-14T14:31:40;31.90;38.50
15717;DHT22;7960;50.908;4.204;2023-06-14T14:34:06;31.90;38.60
15717;DHT22;7960;50.908;4.204;2023-06-14T14:36:33;32.30;38.30
15717;DHT22;7960;50.908;4.204;2023-06-14T14:39:03;32.10;38.10
15717;DHT22;7960;50.908;4.204;2023-06-14T14:41:31;31.50;38.20
15717;DHT22;7960;50.908;4.204;2023-06-14T14:43:58;31.10;38.40
15717;DHT22;7960;50.908;4.204;2023-06-14T14:46:26;31.80;39.30
15717;DHT22;7960;50.908;4.204;2023-06-14T14:48:54;32.20;37.90
15717;DHT22;7960;50.908;4.204;2023-06-14T14:51:20;32.50;36.80
15717;DHT22;7960;50.908;4.204;2023-06-14T14:53:47;32.70;36.80
15717;DHT22;7960;50.908;4.204;2023-06-14T14:56:14;32.90;37.30
15717;DHT22;7960;50.908;4.204;2023-06-14T14:58:44;32.60;36.30
15717;DHT22;7960;50.908;4.204;2023-06-14T15:01:10;32.20;36.70
15717;DHT22;7960;50.908;4.204;2023-06-14T15:03:37;32.50;36.80
15717;DHT22;7960;50.908;4.204;2023-06-14T15:06:04;32.70;37.10
15717;DHT22;7960;50.908;4.204;2023-06-14T15:08:31;33.00;37.00
15717;DHT22;7960;50.908;4.204;2023-06-14T15:10:58;32.80;37.20
15717;DHT22;7960;50.908;4.204;2023-06-14T15:13:25;32.90;37.70
15717;DHT22;7960;50.908;4.204;2023-06-14T15:15:54;32.70;37.20
15717;DHT22;7960;50.908;4.204;2023-06-14T15:18:22;33.10;37.70
15717;DHT22;7960;50.908;4.204;2023-06-14T15:20:49;33.00;37.00
15717;DHT22;7960;50.908;4.204;2023-06-14T15:23:15;33.00;36.90
15717;DHT22;7960;50.908;4.204;2023-06-14T15:25:46;32.70;37.40
15717;DHT22;7960;50.908;4.204;2023-06-14T15:28:13;32.80;35.70
15717;DHT22;7960;50.908;4.204;2023-06-14T15:30:40;32.80;36.50
15717;DHT22;7960;50.908;4.204;2023-06-14T15:33:08;32.60;36.60
15717;DHT22;7960;50.908;4.204;2023-06-14T15:35:36;33.00;37.50
15717;DHT22;7960;50.908;4.204;2023-06-14T15:38:02;32.60;35.60
15717;DHT22;7960;50.908;4.204;2023-06-14T15:40:29;32.00;35.20
15717;DHT22;7960;50.908;4.204;2023-06-14T15:42:56;32.30;36.50
15717;DHT22;7960;50.908;4.204;2023-06-14T15:45:23;32.70;37.50
15717;DHT22;7960;50.908;4.204;2023-06-14T15:47:50;33.10;36.60
15717;DHT22;7960;50.908;4.204;2023-06-14T15:50:18;33.20;36.00
15717;DHT22;7960;50.908;4.204;2023-06-14T15:52:45;33.30;36.10
15717;DHT22;7960;50.908;4.204;2023-06-14T15:55:12;33.40;36.40